SOG weather

Sogndal Airport
Sogndal, Sogn og Fjordane, Norway

Public forecast

Using degrees Celsius for public forecast. Weather courtesy of forecast.io.

METAR (pilot weather report)

Retrieved 2019/03/18 17:50 UTC (17 minutes ago):

ENSG 181750Z 27005KT 230V310 9999 FEW045 00/M08 Q1011 RMK WIND 3806FT 32019KT

TAF (pilot weather forecast)

Closest forecast is Bergen Airport Flesland, 76.5 nm (141.8 km) SW. Retrieved 2019/03/18 18:57 UTC (0 seconds ago):

TAF ENBR 181700Z 1818/1918 34010KT 9999 FEW035 BECMG 1820/1823 VRB05KT BECMG 1910/1913 16015KT BECMG 1915/1918 17020G30KT -RA